Time;durP1;ratioP1;P1;durP2;ratioP2;P2;SDS_P1;SDS_P2;PMS_P1;PMS_P2;Temp;Humidity;BMP_temperature;BMP_pressure;BME280_temperature;BME280_humidity;BME280_pressure;Samples;Min_cycle;Max_cycle;Signal;HPM_P1;HPM_P2
2021/01/03 00:00:56;;;;;;;39.45;24.00;;;4.30;99.90;;;;;;5083686;28;20082;-76
2021/01/03 00:03:21;;;;;;;38.55;22.80;;;4.40;99.90;;;;;;5083133;28;20064;-75
2021/01/03 00:05:47;;;;;;;37.05;22.50;;;4.40;99.90;;;;;;5084273;28;20493;-75
2021/01/03 00:08:12;;;;;;;38.42;23.15;;;4.50;99.90;;;;;;5084182;28;20392;-75
2021/01/03 00:10:38;;;;;;;42.95;23.33;;;4.50;99.90;;;;;;5084217;28;20422;-75
2021/01/03 00:13:04;;;;;;;37.72;23.10;;;4.30;99.90;;;;;;5080465;28;20115;-75
2021/01/03 00:15:30;;;;;;;37.17;22.17;;;4.30;99.90;;;;;;5070685;28;20127;-74
2021/01/03 00:17:55;;;;;;;36.80;22.48;;;4.30;99.90;;;;;;5080272;28;20169;-74
2021/01/03 00:20:29;;;;;;;34.33;22.33;;;4.60;99.90;;;;;;5074218;28;20039;-76
2021/01/03 00:22:55;;;;;;;41.03;23.25;;;4.70;99.90;;;;;;5082989;28;20048;-75
2021/01/03 00:25:24;;;;;;;31.42;20.75;;;4.60;99.90;;;;;;5083602;28;20043;-75
2021/01/03 00:27:50;;;;;;;32.88;21.75;;;4.50;99.90;;;;;;5084988;28;20121;-76
2021/01/03 00:30:18;;;;;;;34.40;21.48;;;4.60;99.90;;;;;;5084039;28;20460;-76
2021/01/03 00:32:44;;;;;;;38.45;22.50;;;4.50;99.90;;;;;;5083578;28;20055;-76
2021/01/03 00:35:13;;;;;;;33.00;20.50;;;4.40;99.90;;;;;;5083559;28;20040;-75
2021/01/03 00:37:39;;;;;;;30.27;19.52;;;4.50;99.90;;;;;;5083803;28;20054;-76
2021/01/03 00:40:11;;;;;;;30.58;20.10;;;4.50;99.90;;;;;;5082513;28;20090;-76
2021/01/03 00:42:36;;;;;;;30.58;19.90;;;4.40;99.90;;;;;;5084253;28;20480;-76
2021/01/03 00:45:04;;;;;;;28.42;19.30;;;4.30;99.90;;;;;;5069804;28;20071;-76
2021/01/03 00:47:30;;;;;;;28.52;18.95;;;4.40;99.90;;;;;;5066258;28;20106;-76
2021/01/03 00:49:56;;;;;;;33.83;19.27;;;4.30;99.90;;;;;;5065908;28;20056;-76
2021/01/03 00:52:21;;;;;;;25.23;18.40;;;4.20;99.90;;;;;;5081986;28;20124;-76
2021/01/03 00:54:47;;;;;;;24.58;17.63;;;4.30;99.90;;;;;;5083911;28;20467;-75
2021/01/03 00:57:12;;;;;;;25.60;17.15;;;4.20;99.90;;;;;;5082862;28;20094;-76
2021/01/03 00:59:38;;;;;;;26.80;17.88;;;4.20;99.90;;;;;;5084218;28;20055;-75
2021/01/03 01:02:04;;;;;;;21.15;15.52;;;4.20;99.90;;;;;;5081988;28;20044;-76
2021/01/03 01:04:29;;;;;;;23.45;16.10;;;4.20;99.90;;;;;;5084275;28;20040;-76
2021/01/03 01:06:55;;;;;;;25.67;16.17;;;4.00;99.90;;;;;;5073780;28;20045;-76
2021/01/03 01:09:20;;;;;;;23.40;17.42;;;4.00;99.90;;;;;;5064362;28;20043;-76
2021/01/03 01:11:46;;;;;;;25.77;18.10;;;4.00;99.90;;;;;;5078583;28;20040;-75
2021/01/03 01:14:12;;;;;;;25.52;17.67;;;4.00;99.90;;;;;;5083731;28;20508;-76
2021/01/03 01:16:37;;;;;;;26.77;18.10;;;4.00;99.90;;;;;;5081579;28;20090;-75
2021/01/03 01:19:05;;;;;;;22.23;16.30;;;3.80;99.90;;;;;;5083935;28;20343;-77
2021/01/03 01:21:31;;;;;;;19.58;14.02;;;3.80;99.90;;;;;;5079425;28;20040;-75
2021/01/03 01:23:56;;;;;;;20.92;15.82;;;3.60;99.90;;;;;;5063010;28;20098;-75
2021/01/03 01:26:23;;;;;;;25.48;17.98;;;3.60;99.90;;;;;;5073685;28;20032;-75
2021/01/03 01:28:49;;;;;;;28.95;17.75;;;3.50;99.90;;;;;;5084427;28;20139;-75
2021/01/03 01:31:15;;;;;;;26.52;17.42;;;3.40;99.90;;;;;;5081621;28;20115;-75
2021/01/03 01:33:40;;;;;;;32.33;18.13;;;3.40;99.90;;;;;;5064282;28;20068;-74
2021/01/03 01:36:06;;;;;;;24.23;16.30;;;3.70;99.90;;;;;;5071032;28;20067;-75
2021/01/03 01:38:32;;;;;;;26.98;17.80;;;3.70;99.90;;;;;;5082980;28;20043;-76
2021/01/03 01:40:59;;;;;;;26.05;17.10;;;3.60;99.90;;;;;;5082261;28;20052;-76
2021/01/03 01:43:25;;;;;;;24.45;17.90;;;3.60;99.90;;;;;;5065422;28;20041;-74
2021/01/03 01:45:51;;;;;;;30.88;19.50;;;3.60;99.90;;;;;;5065376;28;20097;-74
2021/01/03 01:48:21;;;;;;;28.10;19.02;;;3.50;99.90;;;;;;5084546;28;20059;-76
2021/01/03 01:50:50;;;;;;;22.42;16.90;;;3.50;99.90;;;;;;5086552;28;20052;-77
2021/01/03 01:53:26;;;;;;;21.17;16.98;;;3.50;99.90;;;;;;5084825;28;20044;-75
2021/01/03 01:56:10;;;;;;;36.13;19.45;;;3.60;99.90;;;;;;5072898;28;20485;-75
2021/01/03 01:58:41;;;;;;;26.63;19.20;;;3.50;99.90;;;;;;5070340;28;20123;-75
2021/01/03 02:01:11;;;;;;;32.70;18.75;;;3.60;99.90;;;;;;5074707;28;20541;-76
2021/01/03 02:03:50;;;;;;;32.78;19.52;;;3.60;99.90;;;;;;5086547;28;20436;-76
2021/01/03 02:06:29;;;;;;;40.97;24.38;;;3.60;99.90;;;;;;5087539;28;20093;-75
2021/01/03 02:09:02;;;;;;;63.83;30.00;;;3.60;99.90;;;;;;5086990;28;20046;-76
2021/01/03 02:11:30;;;;;;;67.75;33.60;;;3.50;99.90;;;;;;5085983;28;20043;-76
2021/01/03 02:13:58;;;;;;;61.03;34.53;;;3.50;99.90;;;;;;5085409;28;20463;-75
2021/01/03 02:16:29;;;;;;;67.95;35.67;;;3.50;99.90;;;;;;5084817;28;20457;-76
2021/01/03 02:18:55;;;;;;;105.72;41.55;;;3.50;99.90;;;;;;5086702;28;20036;-75
2021/01/03 02:21:31;;;;;;;150.25;51.83;;;3.60;99.90;;;;;;5079751;28;20545;-74
2021/01/03 02:24:01;;;;;;;94.22;42.90;;;3.50;99.90;;;;;;5086478;28;20044;-76
2021/01/03 02:26:30;;;;;;;134.38;49.67;;;3.50;99.90;;;;;;5066890;28;20325;-75
2021/01/03 02:28:57;;;;;;;149.10;52.88;;;3.50;99.90;;;;;;5077476;28;20052;-75
2021/01/03 02:31:34;;;;;;;94.93;43.05;;;3.50;99.90;;;;;;5086003;28;20044;-76
2021/01/03 02:34:01;;;;;;;154.13;55.08;;;3.60;99.90;;;;;;5085464;28;20043;-75
2021/01/03 02:36:53;;;;;;;166.85;52.40;;;3.70;99.90;;;;;;5086211;28;20131;-75
2021/01/03 02:39:59;;;;;;;127.05;48.88;;;3.70;99.90;;;;;;5059154;28;20040;-75
2021/01/03 02:42:32;;;;;;;121.20;47.72;;;3.60;99.90;;;;;;5039277;28;20114;-75
2021/01/03 02:44:59;;;;;;;66.35;35.05;;;3.70;99.90;;;;;;5086623;28;20066;-75
2021/01/03 02:47:28;;;;;;;70.15;36.92;;;3.70;99.90;;;;;;5084080;28;20564;-75
2021/01/03 02:49:54;;;;;;;74.78;37.50;;;3.70;99.90;;;;;;5085191;28;20040;-76
2021/01/03 02:52:29;;;;;;;58.85;32.85;;;3.70;99.90;;;;;;5084601;28;20032;-75
2021/01/03 02:54:55;;;;;;;52.20;31.63;;;3.70;99.90;;;;;;5086509;28;20058;-75
2021/01/03 02:57:20;;;;;;;50.95;29.75;;;3.90;99.90;;;;;;5085123;28;20040;-74
2021/01/03 02:59:46;;;;;;;48.00;29.38;;;3.80;99.90;;;;;;5084686;28;20050;-76
2021/01/03 03:02:12;;;;;;;41.70;26.15;;;4.00;99.90;;;;;;5084597;28;20040;-76
2021/01/03 03:04:37;;;;;;;46.58;26.33;;;4.00;99.90;;;;;;5084075;28;20504;-75
2021/01/03 03:07:03;;;;;;;37.38;23.75;;;4.10;99.90;;;;;;5078981;28;20442;-76
2021/01/03 03:09:29;;;;;;;35.28;23.35;;;4.10;99.90;;;;;;5085537;28;20040;-75
2021/01/03 03:11:54;;;;;;;53.55;26.30;;;4.10;99.90;;;;;;5085557;28;20507;-75
2021/01/03 03:14:20;;;;;;;53.58;27.75;;;4.00;99.90;;;;;;5085975;28;20119;-75
2021/01/03 03:16:46;;;;;;;47.33;26.42;;;4.00;99.90;;;;;;5084397;28;20047;-75
2021/01/03 03:19:11;;;;;;;52.40;26.33;;;3.90;99.90;;;;;;5084900;28;20110;-75
2021/01/03 03:21:37;;;;;;;67.72;28.35;;;3.90;99.90;;;;;;5068859;28;20055;-74
2021/01/03 03:24:03;;;;;;;54.90;27.95;;;4.00;99.90;;;;;;5076365;28;20040;-76
2021/01/03 03:26:29;;;;;;;49.38;28.45;;;4.00;99.90;;;;;;5085727;28;20048;-75
2021/01/03 03:28:55;;;;;;;57.67;29.55;;;3.90;99.90;;;;;;5084735;28;20102;-75
2021/01/03 03:31:28;;;;;;;69.47;31.92;;;4.00;99.90;;;;;;5071480;28;20404;-75
2021/01/03 03:33:54;;;;;;;58.03;30.55;;;3.90;99.90;;;;;;5072321;28;20098;-74
2021/01/03 03:36:19;;;;;;;62.90;30.30;;;3.90;99.90;;;;;;5072303;28;20041;-76
2021/01/03 03:38:45;;;;;;;51.53;29.02;;;3.90;99.90;;;;;;5072291;28;20113;-75
2021/01/03 03:41:24;;;;;;;67.75;30.77;;;4.00;99.90;;;;;;5084220;28;20040;-74
2021/01/03 03:43:51;;;;;;;67.78;32.30;;;4.00;99.90;;;;;;5085552;28;20048;-74
2021/01/03 03:46:16;;;;;;;62.83;31.95;;;4.00;99.90;;;;;;5072698;28;20049;-74
2021/01/03 03:48:43;;;;;;;60.35;32.25;;;4.10;99.90;;;;;;5069796;28;20143;-76
2021/01/03 03:51:08;;;;;;;79.47;33.08;;;4.00;99.90;;;;;;5073189;28;20033;-75
2021/01/03 03:53:34;;;;;;;61.65;33.38;;;3.90;99.90;;;;;;5066998;28;20105;-76
2021/01/03 03:55:59;;;;;;;68.30;33.65;;;4.00;99.90;;;;;;5073723;28;20048;-75
2021/01/03 03:58:25;;;;;;;77.32;34.55;;;4.00;99.90;;;;;;5066280;28;20493;-75
2021/01/03 04:00:52;;;;;;;64.47;34.28;;;4.10;99.90;;;;;;5083893;28;20422;-76
2021/01/03 04:03:19;;;;;;;61.33;32.90;;;4.00;99.90;;;;;;5085700;28;20040;-74
2021/01/03 04:05:46;;;;;;;66.07;34.08;;;4.10;99.90;;;;;;5075882;28;20051;-75
2021/01/03 04:08:14;;;;;;;71.20;34.63;;;4.20;99.90;;;;;;5064707;28;20048;-75
2021/01/03 04:10:40;;;;;;;68.28;33.00;;;4.20;99.90;;;;;;5082811;28;20064;-75
2021/01/03 04:13:10;;;;;;;62.95;34.03;;;4.20;99.90;;;;;;5084506;28;20101;-75
2021/01/03 04:15:36;;;;;;;72.20;34.15;;;4.30;99.90;;;;;;5082610;28;20040;-75
2021/01/03 04:18:03;;;;;;;79.38;34.75;;;4.20;99.90;;;;;;5083456;28;20523;-75
2021/01/03 04:20:29;;;;;;;80.57;35.83;;;4.10;99.90;;;;;;5083603;28;20047;-75
2021/01/03 04:22:54;;;;;;;98.72;38.00;;;4.20;99.90;;;;;;5084300;28;20040;-75
2021/01/03 04:25:20;;;;;;;166.00;37.92;;;4.10;99.90;;;;;;5083906;28;20044;-75
2021/01/03 04:27:46;;;;;;;370.73;45.13;;;4.00;99.90;;;;;;5083883;28;20357;-74
2021/01/03 04:30:14;;;;;;;200.85;41.47;;;3.90;99.90;;;;;;5082256;28;20036;-74
2021/01/03 04:32:40;;;;;;;194.52;41.45;;;4.00;99.90;;;;;;5063650;28;20496;-75
2021/01/03 04:35:07;;;;;;;100.03;37.88;;;4.00;99.90;;;;;;5076894;28;20134;-75
2021/01/03 04:37:33;;;;;;;89.50;36.25;;;4.10;99.90;;;;;;5082934;28;20044;-75
2021/01/03 04:39:59;;;;;;;204.57;41.17;;;4.20;99.90;;;;;;5084526;28;20059;-75
2021/01/03 04:42:29;;;;;;;109.80;38.40;;;4.10;99.90;;;;;;5081960;28;20078;-75
2021/01/03 04:45:00;;;;;;;249.70;42.20;;;4.20;99.90;;;;;;5083119;28;20044;-75
2021/01/03 04:47:36;;;;;;;123.35;39.30;;;4.20;99.90;;;;;;5064729;28;20397;-77
2021/01/03 04:50:09;;;;;;;179.63;41.80;;;4.20;99.90;;;;;;5073474;28;20571;-75
2021/01/03 04:53:12;;;;;;;91.47;41.15;;;4.20;99.90;;;;;;5082781;28;20515;-74
2021/01/03 04:55:46;;;;;;;105.13;42.28;;;4.20;99.90;;;;;;5080017;28;20076;-74
2021/01/03 04:58:15;;;;;;;118.05;44.15;;;4.20;99.90;;;;;;5064482;28;20072;-75
2021/01/03 05:01:04;;;;;;;97.07;42.00;;;4.10;99.90;;;;;;5077178;28;20040;-76
2021/01/03 05:03:51;;;;;;;113.65;43.60;;;4.10;99.90;;;;;;5083407;28;20071;-76
2021/01/03 05:06:24;;;;;;;105.93;45.92;;;4.10;99.90;;;;;;5081729;28;20036;-75
2021/01/03 05:09:02;;;;;;;105.68;44.30;;;4.20;99.90;;;;;;5084582;28;20127;-75
2021/01/03 05:11:57;;;;;;;100.72;45.25;;;4.20;99.90;;;;;;5083110;28;20036;-75
2021/01/03 05:14:41;;;;;;;96.65;42.50;;;4.30;99.90;;;;;;5077896;28;20107;-74
2021/01/03 05:17:27;;;;;;;95.78;41.50;;;4.30;99.90;;;;;;5082563;28;20055;-74
2021/01/03 05:19:52;;;;;;;100.38;43.00;;;4.30;99.90;;;;;;5084105;28;20115;-75
2021/01/03 05:22:27;;;;;;;93.65;42.58;;;4.30;99.90;;;;;;5068210;28;20056;-73
2021/01/03 05:24:57;;;;;;;103.90;43.47;;;4.30;99.90;;;;;;5068439;28;20044;-76
2021/01/03 05:27:22;;;;;;;97.10;45.42;;;4.20;99.90;;;;;;5069892;28;20047;-75
2021/01/03 05:29:48;;;;;;;104.47;42.92;;;4.30;99.90;;;;;;5075501;28;20056;-75
2021/01/03 05:32:27;;;;;;;97.13;44.35;;;4.20;99.90;;;;;;5071579;28;20049;-74
2021/01/03 05:34:53;;;;;;;93.60;43.58;;;4.20;99.90;;;;;;5067616;28;20040;-75
2021/01/03 05:37:24;;;;;;;100.22;42.30;;;4.30;99.90;;;;;;5082769;28;20039;-76
2021/01/03 05:39:50;;;;;;;87.20;42.38;;;4.30;99.90;;;;;;5082864;28;20060;-75
2021/01/03 05:42:18;;;;;;;89.55;43.75;;;4.30;99.90;;;;;;5083397;28;20052;-75
2021/01/03 05:44:56;;;;;;;88.00;43.28;;;4.40;99.90;;;;;;5082788;28;20335;-75
2021/01/03 05:47:33;;;;;;;85.32;40.00;;;4.40;99.90;;;;;;5071875;28;20512;-75
2021/01/03 05:50:26;;;;;;;83.63;41.63;;;4.40;99.90;;;;;;5069831;28;20043;-75
2021/01/03 05:52:53;;;;;;;86.82;40.65;;;4.40;99.90;;;;;;5083428;28;20401;-75
2021/01/03 05:55:24;;;;;;;91.55;43.85;;;4.30;99.90;;;;;;5082295;28;20040;-75
2021/01/03 05:58:02;;;;;;;89.55;41.80;;;4.40;99.90;;;;;;5069940;28;20171;-76
2021/01/03 06:00:28;;;;;;;81.05;41.28;;;4.30;99.90;;;;;;5082314;28;20123;-74
2021/01/03 06:02:53;;;;;;;90.82;41.95;;;4.40;99.90;;;;;;5081790;28;20119;-76
2021/01/03 06:05:22;;;;;;;89.10;41.20;;;4.30;99.90;;;;;;5083960;28;20177;-76
2021/01/03 06:08:15;;;;;;;88.22;44.00;;;4.40;99.90;;;;;;5083321;28;20104;-75
2021/01/03 06:10:41;;;;;;;91.10;42.70;;;4.40;99.90;;;;;;5082642;28;20041;-75
2021/01/03 06:13:09;;;;;;;86.70;42.55;;;4.40;99.90;;;;;;5082493;28;20051;-74
2021/01/03 06:15:56;;;;;;;82.10;42.28;;;4.30;99.90;;;;;;5081479;28;20051;-75
2021/01/03 06:18:47;;;;;;;82.07;42.42;;;4.30;99.90;;;;;;5083298;28;20092;-74
2021/01/03 06:21:36;;;;;;;85.47;41.53;;;4.40;99.90;;;;;;5083281;28;20055;-75
2021/01/03 06:24:01;;;;;;;87.93;43.53;;;4.30;99.90;;;;;;5062416;28;20040;-74
2021/01/03 06:26:34;;;;;;;81.88;41.03;;;4.30;99.90;;;;;;5081639;28;20059;-75
2021/01/03 06:29:04;;;;;;;95.65;45.45;;;4.30;99.90;;;;;;5062287;28;20139;-76
2021/01/03 06:31:43;;;;;;;91.95;43.38;;;4.30;99.90;;;;;;5080968;28;20040;-76
2021/01/03 06:34:24;;;;;;;89.63;44.50;;;4.20;99.90;;;;;;5082842;28;20355;-76
2021/01/03 06:36:58;;;;;;;100.82;47.25;;;4.30;99.90;;;;;;5068748;28;20123;-74
2021/01/03 06:39:33;;;;;;;117.90;47.88;;;4.10;99.90;;;;;;5086577;28;20056;-73
2021/01/03 06:42:04;;;;;;;118.40;47.97;;;4.00;99.90;;;;;;5084416;28;20044;-75
2021/01/03 06:44:46;;;;;;;130.15;50.22;;;3.90;99.90;;;;;;5066743;28;20063;-74
2021/01/03 06:47:59;;;;;;;102.72;46.20;;;3.90;99.90;;;;;;5080596;28;20040;-75
2021/01/03 06:50:55;;;;;;;103.72;45.63;;;3.90;99.90;;;;;;5086086;28;20044;-75
2021/01/03 06:53:39;;;;;;;101.75;44.97;;;4.00;99.90;;;;;;5086116;28;20359;-76
2021/01/03 06:56:27;;;;;;;92.60;45.17;;;4.10;99.90;;;;;;5085544;28;20126;-74
2021/01/03 06:59:21;;;;;;;104.88;44.33;;;4.20;99.90;;;;;;5086496;28;20066;-76
2021/01/03 07:01:48;;;;;;;107.18;46.20;;;4.10;99.90;;;;;;5085060;28;20044;-75
2021/01/03 07:04:23;;;;;;;96.38;45.83;;;4.20;99.90;;;;;;5086135;28;20052;-75
2021/01/03 07:06:50;;;;;;;101.53;44.80;;;4.20;99.90;;;;;;5086287;28;20048;-74
2021/01/03 07:09:17;;;;;;;90.65;43.13;;;4.20;99.90;;;;;;5084862;28;20406;-74
2021/01/03 07:11:46;;;;;;;97.15;44.05;;;4.20;99.90;;;;;;5085734;28;20097;-73
2021/01/03 07:14:24;;;;;;;93.03;44.40;;;4.20;99.90;;;;;;5076469;28;20695;-72
2021/01/03 07:17:14;;;;;;;97.95;42.75;;;4.20;99.90;;;;;;5082056;28;20147;-73
2021/01/03 07:19:54;;;;;;;123.00;49.10;;;4.10;99.90;;;;;;5049441;28;20048;-73
2021/01/03 07:22:28;;;;;;;96.60;44.08;;;4.00;99.90;;;;;;5094310;27;20051;-73
2021/01/03 07:24:53;;;;;;;94.70;45.35;;;4.10;99.90;;;;;;5084353;28;20040;-72
2021/01/03 07:27:25;;;;;;;102.68;44.85;;;4.10;99.90;;;;;;5084318;28;20440;-73
2021/01/03 07:29:57;;;;;;;113.55;45.70;;;4.10;99.90;;;;;;5083223;28;20066;-73
2021/01/03 07:32:37;;;;;;;103.25;44.97;;;4.20;99.90;;;;;;5083600;28;20044;-73
2021/01/03 07:35:11;;;;;;;104.78;46.33;;;4.10;99.90;;;;;;5084912;28;20066;-72
2021/01/03 07:37:38;;;;;;;101.40;43.40;;;4.20;99.90;;;;;;5082882;28;20044;-71
2021/01/03 07:40:11;;;;;;;103.97;45.42;;;4.10;99.90;;;;;;5084450;28;20432;-73
2021/01/03 07:42:58;;;;;;;100.22;47.70;;;4.10;99.90;;;;;;5082058;28;20143;-73
2021/01/03 07:45:27;;;;;;;101.50;44.92;;;4.00;99.90;;;;;;5081080;28;20078;-73
2021/01/03 07:47:54;;;;;;;100.47;45.38;;;4.10;99.90;;;;;;5084674;28;20117;-72
2021/01/03 07:50:23;;;;;;;115.35;53.63;;;4.10;99.90;;;;;;5085212;28;20048;-72
2021/01/03 07:52:56;;;;;;;98.78;46.42;;;4.20;99.90;;;;;;5085757;28;20047;-72
2021/01/03 07:55:22;;;;;;;;;;;4.20;99.90;;;;;;5083019;28;20139;-72
2021/01/03 07:58:13;;;;;;;103.93;45.88;;;4.30;99.90;;;;;;5084274;28;20018;-72
2021/01/03 08:00:40;;;;;;;96.32;48.03;;;4.30;99.90;;;;;;5071975;28;20044;-72
2021/01/03 08:03:11;;;;;;;101.97;45.17;;;4.40;99.90;;;;;;5079440;28;20280;-71
2021/01/03 08:05:39;;;;;;;98.60;45.90;;;4.30;99.90;;;;;;5083972;28;20047;-72
2021/01/03 08:08:34;;;;;;;107.32;48.55;;;4.30;99.90;;;;;;5082916;28;20377;-72
2021/01/03 08:11:22;;;;;;;97.40;44.13;;;4.30;99.90;;;;;;5081882;28;20489;-70
2021/01/03 08:13:51;;;;;;;98.57;47.15;;;4.40;99.90;;;;;;5084216;28;20052;-72
2021/01/03 08:16:28;;;;;;;114.70;50.13;;;4.40;99.90;;;;;;5082628;28;20040;-72
2021/01/03 08:19:06;;;;;;;111.38;48.85;;;4.40;99.90;;;;;;5078728;28;20032;-73
2021/01/03 08:21:34;;;;;;;94.95;45.33;;;4.40;99.90;;;;;;5080794;28;20648;-72
2021/01/03 08:24:09;;;;;;;112.97;49.92;;;4.30;99.90;;;;;;5077264;28;20044;-72
2021/01/03 08:26:42;;;;;;;103.63;48.70;;;4.40;99.90;;;;;;5083301;28;20075;-72
2021/01/03 08:29:22;;;;;;;105.57;50.47;;;4.40;99.90;;;;;;5079179;28;20052;-73
2021/01/03 08:31:51;;;;;;;107.38;47.30;;;4.40;99.90;;;;;;5082977;28;20063;-73
2021/01/03 08:34:26;;;;;;;106.57;50.70;;;4.40;99.90;;;;;;5082617;28;20180;-71
2021/01/03 08:36:52;;;;;;;97.03;47.67;;;4.40;99.90;;;;;;5084110;28;20272;-73
2021/01/03 08:39:17;;;;;;;109.15;50.42;;;4.50;99.90;;;;;;5081264;28;20032;-71
2021/01/03 08:41:54;;;;;;;110.22;49.92;;;4.40;99.90;;;;;;5082797;28;20047;-70
2021/01/03 08:44:34;;;;;;;107.00;49.15;;;4.40;99.90;;;;;;5062498;28;20105;-75
2021/01/03 08:47:27;;;;;;;103.65;48.38;;;4.40;99.90;;;;;;5083279;28;20047;-72
2021/01/03 08:50:24;;;;;;;;;;;4.40;99.90;;;;;;5083587;28;20044;-72
2021/01/03 08:52:57;;;;;;;112.45;49.05;;;4.50;99.90;;;;;;5083338;28;20011;-71
2021/01/03 08:55:25;;;;;;;109.50;48.53;;;4.50;99.90;;;;;;5079118;28;20062;-72
2021/01/03 08:57:59;;;;;;;115.20;50.55;;;4.40;99.90;;;;;;5081814;28;20299;-73
2021/01/03 09:00:29;;;;;;;112.18;48.80;;;4.50;99.90;;;;;;5082134;28;20048;-71
2021/01/03 09:02:57;;;;;;;102.93;52.08;;;4.50;99.90;;;;;;5083018;28;20044;-71
2021/01/03 09:05:36;;;;;;;109.78;50.47;;;4.50;99.90;;;;;;5083038;28;20131;-73
2021/01/03 09:08:04;;;;;;;99.95;45.28;;;4.50;99.90;;;;;;5080111;28;20055;-74
2021/01/03 09:10:36;;;;;;;103.28;47.08;;;4.60;99.90;;;;;;5078697;28;20040;-74
2021/01/03 09:13:12;;;;;;;106.97;46.22;;;4.60;99.90;;;;;;5075670;28;20036;-74
2021/01/03 09:15:39;;;;;;;102.70;46.63;;;4.60;99.90;;;;;;5072597;28;20059;-74
2021/01/03 09:18:15;;;;;;;97.88;48.35;;;4.60;99.90;;;;;;5080508;28;20055;-74
2021/01/03 09:20:43;;;;;;;97.05;46.10;;;4.70;99.90;;;;;;5074709;28;20071;-73
2021/01/03 09:23:18;;;;;;;97.57;47.70;;;4.60;99.90;;;;;;5072400;28;20054;-75
2021/01/03 09:25:52;;;;;;;96.47;45.35;;;4.70;99.90;;;;;;5077030;28;20189;-74
2021/01/03 09:28:28;;;;;;;96.85;43.55;;;4.60;99.90;;;;;;5082156;28;20394;-72
2021/01/03 09:31:16;;;;;;;94.85;43.50;;;4.60;99.90;;;;;;5073103;28;20075;-73
2021/01/03 09:33:47;;;;;;;94.40;45.28;;;4.60;99.90;;;;;;5083123;28;20080;-75
2021/01/03 09:36:31;;;;;;;90.28;46.50;;;4.70;99.90;;;;;;5081466;28;20553;-76
2021/01/03 09:39:13;;;;;;;86.18;44.83;;;4.70;99.90;;;;;;5083311;28;20040;-73
2021/01/03 09:42:00;;;;;;;91.82;44.95;;;4.80;99.90;;;;;;5081279;28;20488;-73
2021/01/03 09:44:53;;;;;;;86.82;42.15;;;4.80;99.90;;;;;;5082139;28;20504;-74
2021/01/03 09:47:19;;;;;;;81.82;42.55;;;4.90;99.90;;;;;;5080553;28;20062;-75
2021/01/03 09:49:51;;;;;;;88.70;41.88;;;4.70;99.90;;;;;;5079154;28;20439;-74
2021/01/03 09:52:34;;;;;;;83.55;42.03;;;4.80;99.90;;;;;;5082518;28;20582;-74
2021/01/03 09:55:02;;;;;;;85.95;41.55;;;4.70;99.90;;;;;;5082409;28;20395;-74
2021/01/03 09:57:37;;;;;;;85.13;39.78;;;4.70;99.90;;;;;;5082099;28;20056;-74
2021/01/03 10:00:11;;;;;;;88.43;43.15;;;4.80;99.90;;;;;;5081167;28;20055;-74
2021/01/03 10:02:38;;;;;;;79.05;42.17;;;4.80;99.90;;;;;;5081574;28;20412;-73
2021/01/03 10:05:18;;;;;;;79.45;42.53;;;4.80;99.90;;;;;;5082185;28;20121;-73
2021/01/03 10:07:44;;;;;;;75.88;39.33;;;4.80;99.90;;;;;;5077879;28;20101;-75
2021/01/03 10:10:10;;;;;;;79.55;41.20;;;4.80;99.90;;;;;;5081242;28;20044;-75
2021/01/03 10:12:39;;;;;;;71.00;37.80;;;4.80;99.90;;;;;;5085502;28;20048;-74
2021/01/03 10:15:33;;;;;;;77.28;40.35;;;4.80;99.90;;;;;;5098110;27;20040;-74
2021/01/03 10:18:02;;;;;;;84.00;40.75;;;4.90;99.90;;;;;;5081584;28;20487;-72
2021/01/03 10:20:42;;;;;;;80.57;39.47;;;5.00;99.90;;;;;;5085249;28;20048;-74
2021/01/03 10:23:11;;;;;;;68.68;36.10;;;5.00;99.90;;;;;;5075991;28;20055;-74
2021/01/03 10:25:36;;;;;;;72.43;40.80;;;5.00;99.90;;;;;;5081884;28;20063;-76
2021/01/03 10:28:11;;;;;;;75.18;39.95;;;4.90;99.90;;;;;;5080589;28;20083;-74
2021/01/03 10:30:38;;;;;;;69.45;36.58;;;4.90;99.90;;;;;;5081112;28;20488;-73
2021/01/03 10:33:04;;;;;;;76.00;40.55;;;5.00;99.90;;;;;;5081094;28;20109;-74
2021/01/03 10:35:30;;;;;;;74.53;37.47;;;5.00;99.90;;;;;;5086582;28;20044;-74
2021/01/03 10:37:55;;;;;;;69.72;38.90;;;5.10;99.90;;;;;;5076397;28;20040;-73
2021/01/03 10:40:22;;;;;;;69.90;36.83;;;5.10;99.90;;;;;;5069034;28;20065;-74
2021/01/03 10:42:49;;;;;;;67.47;36.53;;;5.20;99.90;;;;;;5073873;28;20040;-74
2021/01/03 10:45:17;;;;;;;66.30;37.58;;;5.20;99.90;;;;;;5085017;28;20044;-74
2021/01/03 10:47:43;;;;;;;73.00;39.75;;;5.20;99.90;;;;;;5085252;28;20384;-74
2021/01/03 10:50:11;;;;;;;64.53;36.67;;;5.20;99.90;;;;;;5082302;28;20253;-74
2021/01/03 10:52:36;;;;;;;66.13;35.90;;;5.10;99.90;;;;;;5085181;28;20040;-75
2021/01/03 10:55:03;;;;;;;69.90;36.35;;;5.10;99.90;;;;;;5084592;28;20044;-74
2021/01/03 10:57:29;;;;;;;71.57;35.40;;;5.20;99.90;;;;;;5085207;28;20097;-72
2021/01/03 10:59:55;;;;;;;71.50;35.63;;;5.10;99.90;;;;;;5084196;28;20044;-74
2021/01/03 11:02:21;;;;;;;62.90;34.85;;;5.10;99.90;;;;;;5085784;28;20048;-73
2021/01/03 11:04:46;;;;;;;61.28;34.00;;;5.10;99.90;;;;;;5078500;28;20468;-74
2021/01/03 11:07:12;;;;;;;67.43;36.22;;;5.20;99.90;;;;;;5084519;28;20051;-76
2021/01/03 11:09:37;;;;;;;63.90;34.38;;;5.20;99.90;;;;;;5084579;28;20091;-75
2021/01/03 11:12:06;;;;;;;56.17;31.77;;;5.20;99.90;;;;;;5083265;28;20066;-75
2021/01/03 11:14:32;;;;;;;58.58;31.75;;;5.20;99.90;;;;;;5083054;28;20044;-75
2021/01/03 11:16:58;;;;;;;59.83;33.33;;;5.20;99.90;;;;;;5085376;28;20425;-75
2021/01/03 11:19:24;;;;;;;58.95;33.08;;;5.20;99.90;;;;;;5085279;28;20036;-76
2021/01/03 11:21:54;;;;;;;58.08;30.50;;;5.10;99.90;;;;;;5083941;28;20436;-74
2021/01/03 11:24:20;;;;;;;50.33;30.85;;;5.20;99.90;;;;;;5082092;28;20044;-75
2021/01/03 11:26:45;;;;;;;54.22;30.15;;;5.20;99.90;;;;;;5081911;28;20482;-75
2021/01/03 11:29:15;;;;;;;51.13;30.52;;;5.20;99.90;;;;;;5081443;28;20056;-75
2021/01/03 11:31:43;;;;;;;50.20;29.30;;;5.30;99.90;;;;;;5073753;28;20072;-76
2021/01/03 11:34:13;;;;;;;47.28;27.48;;;5.20;99.90;;;;;;5084580;28;20075;-75
2021/01/03 11:36:43;;;;;;;50.92;29.10;;;5.30;99.90;;;;;;5083692;28;20060;-75
2021/01/03 11:39:08;;;;;;;47.13;28.25;;;5.20;99.90;;;;;;5082902;28;20631;-75
2021/01/03 11:41:35;;;;;;;51.38;28.70;;;5.30;99.90;;;;;;5083558;28;20503;-75
2021/01/03 11:44:01;;;;;;;44.08;25.77;;;5.30;99.90;;;;;;5080732;28;20471;-73
2021/01/03 11:46:27;;;;;;;46.35;25.45;;;5.40;99.90;;;;;;5084272;28;20071;-75
2021/01/03 11:48:52;;;;;;;46.38;28.13;;;5.90;99.90;;;;;;5081112;28;20488;-74
2021/01/03 11:51:18;;;;;;;45.15;26.38;;;6.10;99.50;;;;;;5084025;28;20381;-75
2021/01/03 11:53:45;;;;;;;42.92;26.75;;;7.00;97.90;;;;;;5072608;28;20040;-75
2021/01/03 11:56:10;;;;;;;47.22;26.02;;;6.60;98.40;;;;;;5082292;28;20469;-74
2021/01/03 11:58:36;;;;;;;44.38;26.40;;;6.30;98.90;;;;;;5084924;28;20044;-76
2021/01/03 12:01:02;;;;;;;48.97;27.20;;;6.10;99.00;;;;;;5081132;28;20040;-75
2021/01/03 12:03:28;;;;;;;43.28;24.88;;;6.10;99.20;;;;;;5082595;28;20528;-75
2021/01/03 12:05:54;;;;;;;45.75;24.27;;;5.90;99.50;;;;;;5084495;28;20055;-74
2021/01/03 12:08:19;;;;;;;43.75;26.08;;;5.90;99.90;;;;;;5075543;28;20032;-75
2021/01/03 12:10:45;;;;;;;41.88;23.95;;;5.60;99.90;;;;;;5084224;28;20123;-74
2021/01/03 12:13:11;;;;;;;46.05;25.60;;;5.70;99.90;;;;;;5083864;28;20123;-75
2021/01/03 12:15:36;;;;;;;39.65;23.08;;;5.80;99.90;;;;;;5083668;28;20051;-75
2021/01/03 12:18:03;;;;;;;26.02;16.65;;;5.60;99.90;;;;;;5082593;28;20117;-74
2021/01/03 12:20:28;;;;;;;24.65;15.02;;;5.30;99.90;;;;;;5079945;28;20044;-73
2021/01/03 12:22:55;;;;;;;24.83;15.52;;;5.20;99.90;;;;;;5080208;28;20040;-75
2021/01/03 12:25:20;;;;;;;23.40;15.55;;;5.10;99.90;;;;;;5083056;28;20462;-75
2021/01/03 12:27:47;;;;;;;25.15;15.27;;;5.10;99.90;;;;;;5083838;28;20059;-74
2021/01/03 12:30:14;;;;;;;21.55;13.43;;;5.10;99.90;;;;;;5081468;28;20593;-75
2021/01/03 12:32:40;;;;;;;22.38;14.25;;;5.80;99.00;;;;;;5078144;28;20495;-73
2021/01/03 12:35:08;;;;;;;15.77;11.63;;;6.80;97.20;;;;;;5083861;28;20060;-75
2021/01/03 12:37:37;;;;;;;18.20;13.23;;;7.30;95.90;;;;;;5082587;28;20036;-75
2021/01/03 12:40:05;;;;;;;17.58;13.68;;;8.00;95.30;;;;;;5074598;28;20224;-75
2021/01/03 12:42:31;;;;;;;18.00;12.65;;;8.20;94.30;;;;;;5082294;28;20048;-78
2021/01/03 12:44:57;;;;;;;17.73;13.13;;;8.40;93.30;;;;;;5080670;28;20561;-76
2021/01/03 12:47:22;;;;;;;16.90;11.07;;;7.60;94.20;;;;;;5075341;28;20044;-75
2021/01/03 12:49:48;;;;;;;14.98;11.30;;;6.90;95.80;;;;;;5082646;28;20052;-75
2021/01/03 12:52:13;;;;;;;14.05;10.13;;;6.50;96.20;;;;;;5082723;28;20040;-76
2021/01/03 12:54:39;;;;;;;12.55;9.98;;;6.30;96.80;;;;;;5082568;28;20050;-75